Terminal Aerodrome Forecast
Issued by NWS Albuquerque, NM

Home | Current Version | Previous Version | Text Only | Print | Product List | Glossary On
Versions: 1 2 3 4 5 6 7 8 9 10 11 12
855
FTUS45 KABQ 140530
TAFABQ
TAF
KABQ 140530Z 1406/1506 35006KT P6SM FEW250
     FM142000 34012G20KT P6SM FEW250
     FM150200 33007KT P6SM FEW250=

USA.gov is the U.S. government's official web portal to all federal, state and local government web resources and services.